Time;durP1;ratioP1;P1;durP2;ratioP2;P2;SDS_P1;SDS_P2;PMS_P1;PMS_P2;Temp;Humidity;BMP_temperature;BMP_pressure;BME280_temperature;BME280_humidity;BME280_pressure;Samples;Min_cycle;Max_cycle;Signal;HPM_P1;HPM_P2
2022/12/12 00:01:26;;;;;;;22.67;12.80;;;-0.90;99.90;;;;;;5030977;28;20260;-69
2022/12/12 00:03:52;;;;;;;16.37;8.37;;;-1.00;99.90;;;;;;5010608;28;20571;-69
2022/12/12 00:06:20;;;;;;;16.80;10.80;;;-1.00;99.90;;;;;;5032416;28;20415;-68
2022/12/12 00:08:46;;;;;;;21.13;10.27;;;-1.00;99.90;;;;;;5030851;28;20414;-69
2022/12/12 00:11:12;;;;;;;19.40;10.40;;;-1.00;99.90;;;;;;5021875;28;20947;-69
2022/12/12 00:13:38;;;;;;;17.07;8.73;;;-1.00;99.90;;;;;;5015703;28;20204;-69
2022/12/12 00:16:07;;;;;;;13.03;9.03;;;-1.10;99.90;;;;;;5030490;28;20456;-69
2022/12/12 00:18:35;;;;;;;20.33;12.17;;;-1.10;99.90;;;;;;5026410;28;20489;-68
2022/12/12 00:21:01;;;;;;;19.90;8.60;;;-1.10;99.90;;;;;;5032006;28;20415;-69
2022/12/12 00:23:27;;;;;;;14.80;8.30;;;-1.10;99.90;;;;;;5031807;28;20426;-69
2022/12/12 00:25:58;;;;;;;18.77;10.37;;;-1.10;99.90;;;;;;5031705;28;20424;-69
2022/12/12 00:28:24;;;;;;;21.03;9.97;;;-1.00;99.90;;;;;;5020549;28;20303;-69
2022/12/12 00:30:50;;;;;;;12.53;8.63;;;-1.10;99.90;;;;;;5026929;28;20457;-69
2022/12/12 00:33:16;;;;;;;16.73;9.40;;;-1.10;99.90;;;;;;5019233;28;20427;-68
2022/12/12 00:35:41;;;;;;;16.13;11.47;;;-1.20;99.90;;;;;;5021545;28;20860;-71
2022/12/12 00:38:08;;;;;;;18.47;7.80;;;-1.20;99.90;;;;;;5031670;28;20179;-68
2022/12/12 00:40:34;;;;;;;16.80;9.10;;;-1.20;99.90;;;;;;5031553;28;20254;-69
2022/12/12 00:42:59;;;;;;;16.37;8.80;;;-1.20;99.90;;;;;;5030759;28;20425;-69
2022/12/12 00:45:25;;;;;;;18.07;8.00;;;-1.20;99.90;;;;;;5021419;28;20430;-69
2022/12/12 00:47:51;;;;;;;13.10;8.17;;;-1.10;99.90;;;;;;5031790;28;20630;-69
2022/12/12 00:50:17;;;;;;;17.13;9.07;;;-1.10;99.90;;;;;;5030432;28;20421;-70
2022/12/12 00:52:42;;;;;;;18.60;9.87;;;-1.10;99.90;;;;;;5031684;28;20183;-69
2022/12/12 00:55:10;;;;;;;17.33;10.67;;;-1.10;99.90;;;;;;5030177;28;20218;-69
2022/12/12 00:57:36;;;;;;;16.60;10.20;;;-1.20;99.90;;;;;;5012086;28;20190;-68
2022/12/12 01:00:04;;;;;;;20.80;10.40;;;-1.10;99.90;;;;;;5031025;28;20458;-68
2022/12/12 01:02:29;;;;;;;20.40;9.17;;;-1.00;99.90;;;;;;5031403;28;20202;-69
2022/12/12 01:04:55;;;;;;;17.87;9.47;;;-1.00;99.90;;;;;;5031235;28;21070;-69
2022/12/12 01:07:21;;;;;;;24.50;10.70;;;-1.00;99.90;;;;;;5031440;28;20258;-69
2022/12/12 01:09:46;;;;;;;21.00;9.70;;;-1.00;99.90;;;;;;5031142;28;20183;-68
2022/12/12 01:12:12;;;;;;;18.70;9.53;;;-0.90;99.90;;;;;;5018333;28;20168;-68
2022/12/12 01:14:38;;;;;;;19.50;11.60;;;-1.00;99.90;;;;;;5030128;28;20211;-69
2022/12/12 01:17:04;;;;;;;16.03;9.90;;;-1.00;99.90;;;;;;5031287;28;20660;-69
2022/12/12 01:19:29;;;;;;;21.70;10.03;;;-1.00;99.90;;;;;;5031027;28;20449;-68
2022/12/12 01:21:55;;;;;;;19.67;11.27;;;-0.90;99.90;;;;;;5031272;28;20551;-68
2022/12/12 01:24:21;;;;;;;21.97;11.03;;;-0.90;99.90;;;;;;5030757;28;20670;-69
2022/12/12 01:26:47;;;;;;;17.60;9.87;;;-0.90;99.90;;;;;;5031452;28;20175;-69
2022/12/12 01:29:13;;;;;;;18.40;10.10;;;-0.90;99.90;;;;;;5029952;28;20188;-69
2022/12/12 01:31:38;;;;;;;19.30;10.30;;;-0.90;99.90;;;;;;5031153;28;20417;-69
2022/12/12 01:34:04;;;;;;;18.90;9.40;;;-0.90;99.90;;;;;;5030385;28;20195;-67
2022/12/12 01:36:30;;;;;;;22.43;10.27;;;-0.90;99.90;;;;;;5031337;28;20518;-68
2022/12/12 01:38:56;;;;;;;17.37;9.00;;;-0.90;99.90;;;;;;5030817;28;20230;-69
2022/12/12 01:41:22;;;;;;;20.23;9.80;;;-0.80;99.90;;;;;;5031279;28;20203;-68
2022/12/12 01:43:49;;;;;;;15.67;8.70;;;-0.80;99.90;;;;;;5031247;28;20467;-69
2022/12/12 01:46:43;;;;;;;25.23;11.23;;;-0.90;99.90;;;;;;5031060;28;20410;-68
2022/12/12 01:49:23;;;;;;;21.07;12.07;;;-0.80;99.90;;;;;;5012236;28;20438;-69
2022/12/12 01:51:59;;;;;;;16.27;8.57;;;-0.80;99.90;;;;;;5019357;28;20410;-68
2022/12/12 01:54:29;;;;;;;15.43;9.97;;;-0.80;99.90;;;;;;5024985;28;20461;-68
2022/12/12 01:56:57;;;;;;;17.53;7.73;;;-0.80;99.90;;;;;;5020112;28;20410;-69
2022/12/12 01:59:24;;;;;;;15.17;8.70;;;-0.80;99.90;;;;;;5022638;28;20450;-69
2022/12/12 02:01:51;;;;;;;15.67;8.80;;;-0.80;99.90;;;;;;5026802;28;20415;-68
2022/12/12 02:04:18;;;;;;;13.83;8.50;;;-0.80;99.90;;;;;;5022810;28;20436;-69
2022/12/12 02:06:46;;;;;;;16.80;8.40;;;-0.90;99.90;;;;;;5024716;28;20411;-69
2022/12/12 02:09:14;;;;;;;21.40;10.00;;;-0.90;99.90;;;;;;5030641;28;20975;-68
2022/12/12 02:11:48;;;;;;;19.30;10.17;;;-0.80;99.90;;;;;;5030796;28;20445;-68
2022/12/12 02:14:23;;;;;;;24.33;10.17;;;-0.90;99.90;;;;;;5028571;28;20451;-69
2022/12/12 02:17:02;;;;;;;15.90;8.60;;;-0.90;99.90;;;;;;5030705;28;20418;-69
2022/12/12 02:20:15;;;;;;;16.07;10.50;;;-0.80;99.90;;;;;;5024069;28;20500;-68
2022/12/12 02:23:17;;;;;;;17.13;9.77;;;-0.70;99.90;;;;;;4996271;28;20410;-69
2022/12/12 02:26:15;;;;;;;17.87;9.07;;;-0.80;99.90;;;;;;5025832;28;20414;-69
2022/12/12 02:29:24;;;;;;;15.33;7.37;;;-0.70;99.90;;;;;;5022369;28;20908;-69
2022/12/12 02:32:14;;;;;;;21.77;9.93;;;-0.70;99.90;;;;;;5026721;28;20402;-67
2022/12/12 02:35:01;;;;;;;17.00;7.77;;;-0.60;99.90;;;;;;5029354;28;21101;-67
2022/12/12 02:38:09;;;;;;;19.60;9.50;;;-0.60;99.90;;;;;;5029919;28;20411;-68
2022/12/12 02:40:55;;;;;;;18.50;9.77;;;-0.60;99.90;;;;;;4987625;28;20440;-68
2022/12/12 02:43:40;;;;;;;18.87;9.70;;;-0.50;99.90;;;;;;5021234;28;20438;-69
2022/12/12 02:46:20;;;;;;;21.90;10.30;;;-0.60;99.90;;;;;;5030443;28;20407;-69
2022/12/12 02:48:53;;;;;;;22.07;9.80;;;-0.50;99.90;;;;;;5031498;28;20496;-69
2022/12/12 02:51:21;;;;;;;18.20;8.77;;;-0.50;99.90;;;;;;5033344;28;20523;-69
2022/12/12 02:53:46;;;;;;;17.80;10.23;;;-0.50;99.90;;;;;;5033204;28;20446;-69
2022/12/12 02:56:46;;;;;;;19.17;10.93;;;-0.40;99.90;;;;;;5012601;28;20473;-69
2022/12/12 02:59:37;;;;;;;15.27;8.40;;;-0.50;99.90;;;;;;5033679;28;20192;-69
2022/12/12 03:02:05;;;;;;;16.60;8.83;;;-0.40;99.90;;;;;;5031727;28;20423;-68
2022/12/12 03:07:56;;;;;;;18.37;10.80;;;-0.50;99.90;;;;;;5033100;28;20434;-68
2022/12/12 03:10:53;;;;;;;21.23;10.40;;;-0.50;99.90;;;;;;5028320;28;20419;-67
2022/12/12 03:13:24;;;;;;;14.53;8.33;;;-0.50;99.90;;;;;;5025119;28;20418;-68
2022/12/12 03:16:05;;;;;;;17.70;9.03;;;-0.50;99.90;;;;;;5032588;28;20418;-69
2022/12/12 03:18:35;;;;;;;19.27;8.93;;;-0.50;99.90;;;;;;5012300;28;20496;-68
2022/12/12 03:21:14;;;;;;;19.17;9.60;;;-0.50;99.90;;;;;;5029115;28;20774;-69
2022/12/12 03:23:45;;;;;;;20.63;9.00;;;-0.40;99.90;;;;;;5032630;28;20476;-69
2022/12/12 03:26:17;;;;;;;15.90;10.03;;;-0.30;99.90;;;;;;5032516;28;20410;-68
2022/12/12 03:28:48;;;;;;;19.17;9.57;;;-0.30;99.90;;;;;;5032895;28;20509;-68
2022/12/12 03:31:20;;;;;;;16.23;11.20;;;-0.20;99.90;;;;;;5032604;28;20905;-68
2022/12/12 03:34:19;;;;;;;22.53;10.17;;;-0.30;99.90;;;;;;5028203;28;20492;-68
2022/12/12 03:36:55;;;;;;;19.90;9.47;;;-0.30;99.90;;;;;;5028018;28;20521;-68
2022/12/12 03:39:41;;;;;;;19.63;9.00;;;-0.20;99.90;;;;;;5028696;28;20462;-69
2022/12/12 03:42:35;;;;;;;21.40;9.63;;;-0.20;99.90;;;;;;5032742;28;20456;-68
2022/12/12 03:45:12;;;;;;;19.40;9.70;;;-0.20;99.90;;;;;;5025977;28;20434;-68
2022/12/12 03:47:42;;;;;;;22.43;8.67;;;-0.10;99.90;;;;;;5032358;28;20749;-70
2022/12/12 03:50:28;;;;;;;21.53;9.30;;;-0.10;99.90;;;;;;5035273;28;20407;-68
2022/12/12 03:53:10;;;;;;;22.50;9.97;;;-0.10;99.90;;;;;;5018397;28;20501;-69
2022/12/12 03:55:52;;;;;;;21.67;10.83;;;-0.10;99.90;;;;;;5031662;28;20454;-69
2022/12/12 03:58:51;;;;;;;20.27;10.47;;;-0.10;99.90;;;;;;5029362;28;20410;-68
2022/12/12 04:01:26;;;;;;;20.60;10.30;;;0.00;99.90;;;;;;5013529;28;20874;-68
2022/12/12 04:04:23;;;;;;;24.20;9.00;;;0.00;99.90;;;;;;5031877;28;20434;-69
2022/12/12 04:06:58;;;;;;;17.63;9.27;;;-0.10;99.90;;;;;;5003969;28;20433;-68
2022/12/12 04:15:18;;;;;;;20.10;9.47;;;0.00;99.90;;;;;;5029740;28;20457;-69
2022/12/12 04:18:12;;;;;;;22.60;9.73;;;0.00;99.90;;;;;;5030983;28;20421;-68
2022/12/12 04:24:06;;;;;;;17.70;10.90;;;0.00;99.90;;;;;;5021397;28;20457;-68
2022/12/12 04:26:42;;;;;;;21.73;10.27;;;0.00;99.90;;;;;;5019528;28;20456;-68
2022/12/12 04:29:11;;;;;;;20.97;8.73;;;0.00;99.90;;;;;;5031449;28;20931;-69
2022/12/12 04:31:42;;;;;;;17.80;10.43;;;0.00;99.90;;;;;;5031144;28;20406;-67
2022/12/12 04:34:14;;;;;;;22.40;10.27;;;0.00;99.90;;;;;;5024820;28;20439;-70
2022/12/12 04:36:42;;;;;;;14.90;9.47;;;0.10;99.90;;;;;;5031290;28;20758;-69
2022/12/12 04:39:10;;;;;;;22.00;9.00;;;0.10;99.90;;;;;;5029972;28;20450;-69
2022/12/12 04:41:38;;;;;;;18.07;8.23;;;0.20;99.90;;;;;;5031187;28;20806;-68
2022/12/12 04:44:08;;;;;;;19.30;9.80;;;0.20;99.90;;;;;;5028527;28;20442;-69
2022/12/12 04:46:36;;;;;;;18.33;8.60;;;0.20;99.90;;;;;;5013038;28;20445;-69
2022/12/12 04:49:06;;;;;;;14.03;7.10;;;0.20;99.90;;;;;;5020936;28;20852;-69
2022/12/12 04:51:36;;;;;;;15.50;8.60;;;0.20;99.90;;;;;;5029254;28;20648;-68
2022/12/12 04:54:09;;;;;;;18.90;8.33;;;0.20;99.90;;;;;;5030669;28;20482;-68
2022/12/12 04:56:37;;;;;;;14.17;7.13;;;0.30;99.90;;;;;;5030825;28;20410;-68
2022/12/12 04:59:05;;;;;;;14.03;7.03;;;0.30;99.90;;;;;;5030948;28;20541;-68
2022/12/12 05:01:51;;;;;;;14.70;7.80;;;0.20;99.90;;;;;;5031155;28;20764;-68
2022/12/12 05:04:28;;;;;;;24.13;9.47;;;0.30;99.90;;;;;;5014449;28;20418;-69
2022/12/12 05:07:03;;;;;;;15.57;7.33;;;0.20;99.90;;;;;;5030194;28;20409;-68
2022/12/12 05:09:29;;;;;;;14.10;8.73;;;0.20;99.90;;;;;;5029778;28;20762;-68
2022/12/12 05:11:55;;;;;;;12.00;7.70;;;0.20;99.90;;;;;;5030881;28;20411;-67
2022/12/12 05:14:20;;;;;;;12.77;7.47;;;0.20;99.90;;;;;;5023169;28;20241;-69
2022/12/12 05:16:54;;;;;;;15.40;7.30;;;0.20;99.90;;;;;;5030531;28;20406;-68
2022/12/12 05:19:19;;;;;;;12.23;6.60;;;0.20;99.90;;;;;;5030447;28;20218;-66
2022/12/12 05:21:45;;;;;;;11.90;7.40;;;0.20;99.90;;;;;;5027094;28;20414;-67
2022/12/12 05:24:10;;;;;;;12.40;6.33;;;0.20;99.90;;;;;;5012570;28;20697;-67
2022/12/12 05:26:36;;;;;;;10.20;7.90;;;0.30;99.90;;;;;;5024645;28;20168;-68
2022/12/12 05:29:03;;;;;;;6.80;5.60;;;0.30;99.90;;;;;;5030121;28;20172;-68
2022/12/12 05:31:29;;;;;;;10.67;6.43;;;0.30;99.90;;;;;;5030856;28;20194;-68
2022/12/12 05:33:54;;;;;;;11.30;6.30;;;0.30;99.90;;;;;;5029327;28;20832;-67
2022/12/12 05:36:20;;;;;;;7.40;5.87;;;0.20;99.90;;;;;;5030512;28;20639;-67
2022/12/12 05:38:46;;;;;;;9.80;6.27;;;0.30;99.90;;;;;;5030837;28;20198;-67
2022/12/12 05:41:12;;;;;;;7.37;5.00;;;0.30;99.90;;;;;;5030475;28;20905;-67
2022/12/12 05:43:38;;;;;;;6.97;5.30;;;0.20;99.90;;;;;;5031295;28;20250;-68
2022/12/12 05:46:05;;;;;;;9.70;6.03;;;0.30;99.90;;;;;;5029535;28;20399;-68
2022/12/12 05:48:31;;;;;;;10.63;5.67;;;0.20;99.90;;;;;;5024390;28;20407;-68
2022/12/12 05:50:58;;;;;;;6.80;5.50;;;0.30;99.90;;;;;;5026124;28;20410;-68
2022/12/12 05:53:25;;;;;;;9.67;6.00;;;0.30;99.90;;;;;;5029555;28;20484;-68
2022/12/12 05:55:51;;;;;;;7.00;5.17;;;0.20;99.90;;;;;;5030680;28;20901;-67
2022/12/12 05:58:18;;;;;;;7.03;5.20;;;0.30;99.90;;;;;;5030510;28;20180;-68
2022/12/12 06:00:46;;;;;;;11.90;5.40;;;0.30;99.90;;;;;;5030311;28;20270;-68
2022/12/12 06:03:12;;;;;;;7.20;5.30;;;0.20;99.90;;;;;;5029053;28;20417;-68
2022/12/12 06:05:38;;;;;;;7.50;5.73;;;0.30;99.90;;;;;;5030157;28;20521;-68
2022/12/12 06:08:03;;;;;;;5.27;3.97;;;0.30;99.90;;;;;;5030284;28;20234;-67
2022/12/12 06:10:29;;;;;;;13.00;5.97;;;0.30;99.90;;;;;;5030120;28;20179;-68
2022/12/12 06:12:55;;;;;;;11.23;6.20;;;0.30;99.90;;;;;;5030183;28;20611;-68
2022/12/12 06:15:21;;;;;;;8.03;5.17;;;0.30;99.90;;;;;;5012169;28;20681;-68
2022/12/12 06:17:46;;;;;;;5.73;4.57;;;0.30;99.90;;;;;;5029193;28;20176;-66
2022/12/12 06:20:12;;;;;;;5.30;4.07;;;0.20;99.90;;;;;;5030874;28;20569;-67
2022/12/12 06:22:37;;;;;;;5.80;4.03;;;0.30;99.90;;;;;;5030974;28;20631;-67
2022/12/12 06:25:03;;;;;;;5.87;4.23;;;0.30;99.90;;;;;;5031939;28;20192;-66
2022/12/12 06:27:29;;;;;;;7.87;4.70;;;0.30;99.90;;;;;;5033674;28;20176;-67
2022/12/12 06:29:54;;;;;;;4.77;4.07;;;0.30;99.90;;;;;;5033689;28;20416;-67
2022/12/12 06:32:20;;;;;;;9.90;4.97;;;0.30;99.90;;;;;;5034012;28;20163;-67
2022/12/12 06:34:46;;;;;;;7.67;4.70;;;0.30;99.90;;;;;;5033625;28;20187;-68
2022/12/12 06:37:12;;;;;;;8.50;5.30;;;0.30;99.90;;;;;;5033857;28;20249;-67
2022/12/12 06:39:37;;;;;;;4.83;4.23;;;0.30;99.90;;;;;;5033496;28;20454;-67
2022/12/12 06:42:03;;;;;;;5.97;5.10;;;0.30;99.90;;;;;;5033491;28;20175;-67
2022/12/12 06:44:29;;;;;;;8.70;6.07;;;0.30;99.90;;;;;;5033148;28;20183;-67
2022/12/12 06:46:54;;;;;;;6.93;4.20;;;0.30;99.90;;;;;;5033271;28;20785;-67
2022/12/12 06:49:20;;;;;;;5.93;5.13;;;0.30;99.90;;;;;;5036581;28;20177;-66
2022/12/12 06:51:47;;;;;;;5.87;4.20;;;0.30;99.90;;;;;;5033338;28;20176;-67
2022/12/12 06:54:16;;;;;;;7.17;4.90;;;0.30;99.90;;;;;;5033350;28;20579;-67
2022/12/12 06:56:41;;;;;;;6.50;4.90;;;0.30;99.90;;;;;;5029575;28;20819;-67
2022/12/12 06:59:08;;;;;;;5.10;3.43;;;0.30;99.90;;;;;;5033062;28;20606;-66
2022/12/12 07:01:34;;;;;;;6.40;4.33;;;0.30;99.90;;;;;;5033456;28;20180;-67
2022/12/12 07:03:59;;;;;;;7.30;4.40;;;0.30;99.90;;;;;;5033155;28;20422;-67
2022/12/12 07:06:25;;;;;;;6.10;5.33;;;0.30;99.90;;;;;;5033568;28;20654;-67
2022/12/12 07:08:51;;;;;;;7.87;4.37;;;0.30;99.90;;;;;;5032913;28;20180;-67
2022/12/12 07:11:20;;;;;;;4.83;4.33;;;0.30;99.90;;;;;;5032859;28;20257;-67
2022/12/12 07:13:46;;;;;;;6.87;4.43;;;0.30;99.90;;;;;;5033068;28;20434;-66
2022/12/12 07:16:12;;;;;;;5.00;4.47;;;0.30;99.90;;;;;;5032823;28;20438;-67
2022/12/12 07:18:38;;;;;;;5.90;5.17;;;0.20;99.90;;;;;;5032736;28;20977;-67
2022/12/12 07:21:10;;;;;;;6.97;5.10;;;0.20;99.90;;;;;;5032710;28;20167;-67
2022/12/12 07:23:36;;;;;;;5.97;4.77;;;0.20;99.90;;;;;;5026562;28;20984;-67
2022/12/12 07:26:07;;;;;;;5.83;4.63;;;0.20;99.90;;;;;;5027519;28;20493;-67
2022/12/12 07:28:33;;;;;;;5.97;5.30;;;0.20;99.90;;;;;;5032699;28;20172;-67
2022/12/12 07:31:00;;;;;;;7.90;4.63;;;0.20;99.90;;;;;;5032405;28;20414;-67
2022/12/12 07:33:25;;;;;;;6.13;4.60;;;0.20;99.90;;;;;;5027548;28;20164;-67
2022/12/12 07:35:57;;;;;;;6.27;5.17;;;0.20;99.90;;;;;;5031086;28;20402;-67
2022/12/12 07:38:23;;;;;;;9.00;6.23;;;0.20;99.90;;;;;;5032104;28;20195;-67
2022/12/12 07:40:48;;;;;;;6.27;5.10;;;0.20;99.90;;;;;;5032249;28;20516;-67
2022/12/12 07:43:14;;;;;;;5.50;4.20;;;0.20;99.90;;;;;;5032279;28;20168;-67
2022/12/12 07:45:43;;;;;;;5.80;4.40;;;0.20;99.90;;;;;;5032217;28;20294;-68
2022/12/12 07:48:09;;;;;;;7.20;5.03;;;0.30;99.90;;;;;;5032130;28;20286;-69
2022/12/12 07:50:36;;;;;;;6.50;5.50;;;0.30;99.90;;;;;;5032076;28;20449;-68
2022/12/12 07:53:01;;;;;;;6.07;4.60;;;0.40;99.90;;;;;;5032320;28;20230;-68
2022/12/12 07:55:28;;;;;;;5.73;4.60;;;0.30;99.90;;;;;;5028813;28;20968;-69
2022/12/12 07:57:54;;;;;;;7.37;4.50;;;0.40;99.90;;;;;;5031855;28;20230;-68
2022/12/12 08:00:20;;;;;;;5.43;4.60;;;0.40;99.90;;;;;;5031698;28;20450;-67
2022/12/12 08:02:46;;;;;;;8.03;4.40;;;0.40;99.90;;;;;;5031811;28;20630;-68
2022/12/12 08:05:12;;;;;;;6.57;3.97;;;0.60;99.90;;;;;;5031535;28;20426;-69
2022/12/12 08:07:38;;;;;;;4.17;3.83;;;0.80;99.90;;;;;;5031737;28;20410;-69
2022/12/12 08:10:04;;;;;;;5.97;5.27;;;0.70;99.90;;;;;;5028886;28;20488;-68
2022/12/12 08:12:30;;;;;;;7.87;5.20;;;0.60;99.90;;;;;;5026938;28;20172;-68
2022/12/12 08:14:56;;;;;;;7.83;5.60;;;0.70;99.90;;;;;;5028734;28;20431;-69
2022/12/12 08:17:22;;;;;;;5.53;4.80;;;0.60;99.90;;;;;;5027284;28;20745;-69
2022/12/12 08:19:48;;;;;;;6.20;4.60;;;0.50;99.90;;;;;;5029470;28;20192;-68
2022/12/12 08:22:13;;;;;;;5.37;3.70;;;0.40;99.90;;;;;;5031484;28;20421;-69
2022/12/12 08:24:39;;;;;;;8.60;5.70;;;0.40;99.90;;;;;;5028645;28;20215;-69
2022/12/12 08:27:04;;;;;;;5.63;4.20;;;0.50;99.90;;;;;;5027291;28;20515;-69
2022/12/12 08:29:30;;;;;;;4.57;4.10;;;0.40;99.90;;;;;;5030823;28;20281;-69
2022/12/12 08:31:56;;;;;;;4.73;3.87;;;0.40;99.90;;;;;;5030740;28;20175;-68
2022/12/12 08:34:22;;;;;;;4.87;3.60;;;0.40;99.90;;;;;;5031456;28;20657;-69
2022/12/12 08:36:48;;;;;;;5.60;4.13;;;0.40;99.90;;;;;;5030858;28;20490;-68
2022/12/12 08:39:17;;;;;;;5.03;4.53;;;0.40;99.90;;;;;;5031149;28;20561;-68
2022/12/12 08:41:46;;;;;;;4.77;4.33;;;0.40;99.90;;;;;;5028527;28;20905;-69
2022/12/12 08:44:13;;;;;;;4.93;4.10;;;0.40;99.90;;;;;;5031082;28;20786;-70
2022/12/12 08:46:39;;;;;;;4.93;4.50;;;0.40;99.90;;;;;;5026466;28;20438;-68
2022/12/12 08:49:05;;;;;;;4.40;4.00;;;0.40;99.90;;;;;;5024408;28;20430;-69
2022/12/12 08:51:31;;;;;;;8.10;4.53;;;0.40;99.90;;;;;;5031302;28;20468;-69
2022/12/12 08:53:56;;;;;;;5.20;3.77;;;0.40;99.90;;;;;;5031363;28;20446;-69
2022/12/12 08:56:23;;;;;;;4.90;4.10;;;0.40;99.90;;;;;;5031359;28;20186;-69
2022/12/12 08:58:49;;;;;;;5.43;4.53;;;0.40;99.90;;;;;;5031115;28;20199;-68
2022/12/12 09:01:18;;;;;;;6.77;4.20;;;0.40;99.90;;;;;;5025200;28;20497;-68
2022/12/12 09:03:44;;;;;;;5.50;4.43;;;0.50;99.90;;;;;;5030511;28;20418;-68
2022/12/12 09:06:09;;;;;;;4.13;3.80;;;0.40;99.90;;;;;;5027735;28;20488;-68
2022/12/12 09:08:36;;;;;;;4.87;4.30;;;0.50;99.90;;;;;;5024934;28;20483;-68
2022/12/12 09:11:02;;;;;;;3.90;3.50;;;0.50;99.90;;;;;;5030568;28;20195;-68
2022/12/12 09:13:28;;;;;;;4.87;4.07;;;0.50;99.90;;;;;;5030626;28;20456;-67
2022/12/12 09:15:54;;;;;;;4.43;3.53;;;0.50;99.90;;;;;;5030342;28;20493;-68
2022/12/12 09:18:20;;;;;;;5.57;4.83;;;0.40;99.90;;;;;;5025582;28;20402;-69
2022/12/12 09:20:50;;;;;;;4.50;4.07;;;0.50;99.90;;;;;;5028524;28;20329;-69
2022/12/12 09:23:16;;;;;;;7.10;4.60;;;0.60;99.90;;;;;;5030405;28;20426;-70
2022/12/12 09:25:42;;;;;;;4.73;3.40;;;0.50;99.90;;;;;;5031259;28;20434;-67
2022/12/12 09:28:09;;;;;;;4.63;4.10;;;0.50;99.90;;;;;;5030690;28;20407;-68
2022/12/12 09:30:35;;;;;;;4.93;3.57;;;0.50;99.90;;;;;;5012913;28;20418;-69
2022/12/12 09:33:00;;;;;;;6.77;4.00;;;0.50;99.90;;;;;;5012835;28;20425;-69
2022/12/12 09:35:26;;;;;;;7.70;4.90;;;0.40;99.90;;;;;;5030188;28;20199;-68
2022/12/12 09:37:52;;;;;;;9.93;6.00;;;0.50;99.90;;;;;;5026771;28;20183;-68
2022/12/12 09:40:30;;;;;;;4.30;3.90;;;0.50;99.90;;;;;;5030699;28;20203;-69
2022/12/12 09:42:57;;;;;;;4.87;4.13;;;0.50;99.90;;;;;;5015032;28;20497;-68
2022/12/12 09:45:22;;;;;;;3.23;2.93;;;0.50;99.90;;;;;;5022647;28;20437;-69
2022/12/12 09:47:56;;;;;;;5.13;4.00;;;0.30;99.90;;;;;;5026702;28;20845;-68
2022/12/12 09:50:33;;;;;;;4.43;4.03;;;0.40;99.90;;;;;;5023158;28;20175;-68
2022/12/12 09:53:03;;;;;;;3.97;3.67;;;0.40;99.90;;;;;;5030221;28;20781;-68
2022/12/12 09:55:40;;;;;;;5.50;4.37;;;0.30;99.90;;;;;;5031296;28;20442;-68
2022/12/12 09:58:25;;;;;;;4.07;3.70;;;0.40;99.90;;;;;;5034091;28;20503;-68
2022/12/12 10:00:55;;;;;;;3.20;2.90;;;0.40;99.90;;;;;;5034702;28;20503;-68
2022/12/12 10:03:26;;;;;;;4.43;3.70;;;0.40;99.90;;;;;;5034427;28;20640;-68
2022/12/12 10:06:05;;;;;;;6.67;5.00;;;0.30;99.90;;;;;;5033788;28;20414;-68
2022/12/12 10:08:50;;;;;;;4.40;3.00;;;0.30;99.90;;;;;;5034055;28;20557;-68
2022/12/12 10:14:10;;;;;;;4.73;3.17;;;0.30;99.90;;;;;;5032676;28;20436;-67
2022/12/12 10:16:38;;;;;;;5.53;4.00;;;0.30;99.90;;;;;;5034309;28;20930;-68
2022/12/12 10:19:16;;;;;;;3.93;3.53;;;0.30;99.90;;;;;;5033676;28;20501;-68
2022/12/12 10:21:41;;;;;;;4.53;3.30;;;0.30;99.90;;;;;;5034144;28;20421;-67
2022/12/12 10:24:28;;;;;;;4.63;3.30;;;0.40;99.90;;;;;;5033791;28;20426;-69
2022/12/12 10:26:53;;;;;;;5.77;3.80;;;0.40;99.90;;;;;;5030875;28;20214;-68
2022/12/12 10:29:21;;;;;;;6.07;4.73;;;0.40;99.90;;;;;;5035204;28;20406;-68
2022/12/12 10:31:46;;;;;;;3.90;3.27;;;0.40;99.90;;;;;;5037892;28;20179;-69
2022/12/12 10:34:36;;;;;;;3.33;3.03;;;0.40;99.90;;;;;;5033625;28;20434;-69
2022/12/12 10:37:34;;;;;;;3.60;3.30;;;0.30;99.90;;;;;;5033781;28;20234;-68
2022/12/12 10:40:33;;;;;;;3.50;3.20;;;0.20;99.90;;;;;;5029600;28;20519;-69
2022/12/12 10:43:05;;;;;;;5.17;2.90;;;0.20;99.90;;;;;;5031740;28;20847;-67
2022/12/12 10:45:46;;;;;;;7.30;3.60;;;0.20;99.90;;;;;;5033712;28;20806;-68
2022/12/12 10:48:12;;;;;;;4.00;3.70;;;0.20;99.90;;;;;;5033242;28;20414;-68
2022/12/12 10:50:47;;;;;;;4.63;3.57;;;0.20;99.90;;;;;;5029909;28;20418;-68
2022/12/12 10:53:13;;;;;;;3.07;2.73;;;0.20;99.90;;;;;;5032915;28;20179;-68
2022/12/12 10:56:05;;;;;;;3.70;3.40;;;0.20;99.90;;;;;;5034514;28;20500;-67
2022/12/12 10:58:39;;;;;;;5.40;3.30;;;0.30;99.90;;;;;;5032590;28;20182;-67
2022/12/12 11:01:33;;;;;;;6.73;3.50;;;0.20;99.90;;;;;;5030951;28;20848;-68
2022/12/12 11:04:00;;;;;;;3.30;2.77;;;0.20;99.90;;;;;;5031570;28;20798;-69
2022/12/12 11:06:29;;;;;;;3.73;2.73;;;0.20;99.90;;;;;;5032411;28;20411;-68
2022/12/12 11:09:21;;;;;;;4.37;3.50;;;0.20;99.90;;;;;;5032329;28;20468;-68
2022/12/12 11:12:02;;;;;;;3.87;3.03;;;0.20;99.90;;;;;;5033452;28;20421;-67
2022/12/12 11:14:34;;;;;;;4.27;3.47;;;0.10;99.90;;;;;;5027035;28;20798;-68
2022/12/12 11:17:00;;;;;;;3.90;3.57;;;0.20;99.90;;;;;;4999711;28;20446;-68
2022/12/12 11:19:35;;;;;;;3.10;2.80;;;0.10;99.90;;;;;;5022936;28;20469;-68
2022/12/12 11:22:02;;;;;;;4.67;4.20;;;0.20;99.90;;;;;;5023351;28;20401;-67
2022/12/12 11:24:31;;;;;;;3.90;3.50;;;0.20;99.90;;;;;;5024205;28;21342;-69
2022/12/12 11:26:59;;;;;;;3.93;3.30;;;0.20;99.90;;;;;;5022463;28;20414;-69
2022/12/12 11:29:46;;;;;;;3.90;3.23;;;0.20;99.90;;;;;;5026705;28;20414;-69
2022/12/12 11:32:15;;;;;;;6.10;3.47;;;0.20;99.90;;;;;;5026825;28;20438;-68
2022/12/12 11:34:45;;;;;;;3.97;3.30;;;0.20;99.90;;;;;;5026679;28;20434;-67
2022/12/12 11:37:36;;;;;;;4.90;4.10;;;0.30;99.90;;;;;;5017586;28;20458;-67
2022/12/12 11:40:03;;;;;;;5.90;3.50;;;0.40;99.90;;;;;;5022984;28;20916;-68
2022/12/12 11:42:31;;;;;;;4.80;3.67;;;0.40;99.90;;;;;;5022568;28;20861;-68
2022/12/12 11:45:19;;;;;;;7.00;3.90;;;0.50;99.90;;;;;;5030176;28;20784;-68
2022/12/12 11:47:46;;;;;;;5.30;3.53;;;0.70;99.90;;;;;;5030301;28;20994;-68
2022/12/12 11:50:22;;;;;;;3.83;3.40;;;0.70;99.90;;;;;;5030589;28;20425;-67
2022/12/12 11:52:51;;;;;;;3.70;3.30;;;0.70;99.90;;;;;;5007876;28;20436;-67
2022/12/12 11:55:26;;;;;;;5.10;3.47;;;0.80;99.90;;;;;;5023003;28;20476;-68
2022/12/12 11:58:14;;;;;;;4.67;4.17;;;0.70;99.90;;;;;;5030721;28;20437;-69
2022/12/12 12:00:55;;;;;;;7.27;4.00;;;0.60;99.90;;;;;;5028431;28;20457;-68
2022/12/12 12:03:26;;;;;;;6.10;4.47;;;0.50;99.90;;;;;;5011825;28;20532;-68
2022/12/12 12:06:35;;;;;;;5.10;4.07;;;0.40;99.90;;;;;;5030364;28;20422;-69
2022/12/12 12:09:49;;;;;;;4.10;3.30;;;0.40;99.90;;;;;;5017673;28;20460;-68
2022/12/12 12:12:45;;;;;;;5.70;4.40;;;0.30;99.90;;;;;;5001650;28;20798;-68
2022/12/12 12:15:39;;;;;;;5.17;4.67;;;0.30;99.90;;;;;;5030029;28;20852;-68
2022/12/12 12:18:04;;;;;;;5.00;4.00;;;0.20;99.90;;;;;;5029853;28;20489;-68
2022/12/12 12:20:38;;;;;;;6.10;5.00;;;0.20;99.90;;;;;;5031265;28;20587;-68
2022/12/12 12:23:19;;;;;;;6.57;4.87;;;0.10;99.90;;;;;;5030377;28;20178;-68
2022/12/12 12:26:19;;;;;;;5.43;4.93;;;-0.10;99.90;;;;;;5034621;28;20406;-69
2022/12/12 12:29:06;;;;;;;5.17;4.30;;;0.00;99.90;;;;;;5020874;28;20510;-68
2022/12/12 12:32:13;;;;;;;6.50;4.47;;;0.00;99.90;;;;;;5028140;28;20403;-68
2022/12/12 12:35:08;;;;;;;5.20;3.57;;;-0.10;99.90;;;;;;4965476;28;20433;-68
2022/12/12 12:37:42;;;;;;;4.43;3.53;;;0.00;99.90;;;;;;4946725;28;20912;-68
2022/12/12 12:40:11;;;;;;;4.53;3.43;;;0.00;99.90;;;;;;5007635;28;20474;-68
2022/12/12 12:42:57;;;;;;;6.63;4.10;;;0.00;99.90;;;;;;5028537;28;20410;-68
2022/12/12 12:45:44;;;;;;;4.83;3.90;;;0.00;99.90;;;;;;5030915;28;20498;-68
2022/12/12 12:48:16;;;;;;;5.40;2.87;;;-0.10;99.90;;;;;;5003657;28;20783;-68
2022/12/12 12:50:47;;;;;;;4.20;3.70;;;-0.20;99.90;;;;;;5020034;28;20407;-67
2022/12/12 12:53:20;;;;;;;4.00;3.00;;;-0.10;99.90;;;;;;5025114;28;20407;-67
2022/12/12 12:55:49;;;;;;;3.20;2.90;;;-0.20;99.90;;;;;;5022633;28;20522;-68
2022/12/12 12:58:27;;;;;;;4.60;4.20;;;-0.20;99.90;;;;;;5027851;28;20429;-67
2022/12/12 13:01:04;;;;;;;3.90;2.93;;;-0.20;99.90;;;;;;5012942;28;20480;-67
2022/12/12 13:03:43;;;;;;;3.83;3.03;;;-0.20;99.90;;;;;;5030149;28;20809;-68
2022/12/12 13:06:30;;;;;;;2.77;2.53;;;-0.20;99.90;;;;;;5030559;28;20406;-68
2022/12/12 13:09:11;;;;;;;3.00;2.80;;;-0.20;99.90;;;;;;5030548;28;20418;-68
2022/12/12 13:11:44;;;;;;;2.03;1.83;;;-0.20;99.90;;;;;;5029355;28;20552;-68
2022/12/12 13:14:29;;;;;;;3.20;2.90;;;-0.40;99.90;;;;;;5028347;28;20438;-69
2022/12/12 13:16:55;;;;;;;3.30;2.43;;;-0.30;99.90;;;;;;5030985;28;20485;-68
2022/12/12 13:19:36;;;;;;;5.10;2.90;;;-0.30;99.90;;;;;;5030329;28;20454;-69
2022/12/12 13:22:17;;;;;;;2.87;2.50;;;-0.30;99.90;;;;;;5030612;28;20450;-68
2022/12/12 13:24:49;;;;;;;3.30;3.00;;;-0.30;99.90;;;;;;5030324;28;20421;-68
2022/12/12 13:27:31;;;;;;;3.50;2.53;;;-0.30;99.90;;;;;;5031735;28;20425;-69
2022/12/12 13:29:57;;;;;;;4.33;3.60;;;-0.30;99.90;;;;;;5027801;28;21069;-69